Terminal Aerodrome Forecast
Issued by NWS Boston, MA

Home | Current Version | Previous Version | Text Only | Print | Product List | Glossary On
Versions: 1 2 3 4 5 6 7 8 9 10 11 12 13 14 15 16 17 18 19 20 21 22 23 24 25
000
FTUS41 KBOX 161736
TAFORH
TAF
KORH 161736Z 1618/1718 32014KT P6SM FEW050
     FM162300 36008KT P6SM SKC
     FM170500 02004KT P6SM SKC
     FM171400 06008KT P6SM SKC=

USA.gov is the U.S. government's official web portal to all federal, state and local government web resources and services.